sensor_id;sensor_type;location;lat;lon;timestamp;pressure;altitude;pressure_sealevel;temperature;humidity
34482;BME280;20720;48.886;9.388;2023-05-10T00:02:17;97627.28;;;17.53;100.00
34482;BME280;20720;48.886;9.388;2023-05-10T00:04:42;97632.44;;;17.80;100.00
34482;BME280;20720;48.886;9.388;2023-05-10T00:07:07;97630.53;;;17.65;100.00
34482;BME280;20720;48.886;9.388;2023-05-10T00:09:33;97636.47;;;17.98;100.00
34482;BME280;20720;48.886;9.388;2023-05-10T00:11:58;97639.09;;;17.88;100.00
34482;BME280;20720;48.886;9.388;2023-05-10T00:14:24;97641.81;;;18.23;100.00
34482;BME280;20720;48.886;9.388;2023-05-10T00:16:49;97642.03;;;18.06;100.00
34482;BME280;20720;48.886;9.388;2023-05-10T00:19:14;97642.84;;;18.07;100.00
34482;BME280;20720;48.886;9.388;2023-05-10T00:21:39;97642.91;;;16.98;100.00
34482;BME280;20720;48.886;9.388;2023-05-10T00:24:05;97643.19;;;16.97;100.00
34482;BME280;20720;48.886;9.388;2023-05-10T00:26:30;97647.66;;;16.91;100.00
34482;BME280;20720;48.886;9.388;2023-05-10T00:28:55;97657.91;;;17.19;100.00
34482;BME280;20720;48.886;9.388;2023-05-10T00:31:21;97653.31;;;16.63;100.00
34482;BME280;20720;48.886;9.388;2023-05-10T00:33:47;97650.22;;;15.91;100.00
34482;BME280;20720;48.886;9.388;2023-05-10T00:36:12;97649.03;;;15.55;100.00
34482;BME280;20720;48.886;9.388;2023-05-10T00:38:37;97656.28;;;16.45;100.00
34482;BME280;20720;48.886;9.388;2023-05-10T00:41:03;97655.53;;;15.91;100.00
34482;BME280;20720;48.886;9.388;2023-05-10T00:43:28;97662.91;;;16.42;100.00
34482;BME280;20720;48.886;9.388;2023-05-10T00:45:54;97664.38;;;16.55;100.00
34482;BME280;20720;48.886;9.388;2023-05-10T00:48:19;97667.66;;;16.09;100.00
34482;BME280;20720;48.886;9.388;2023-05-10T00:50:45;97669.22;;;15.83;100.00
34482;BME280;20720;48.886;9.388;2023-05-10T00:53:10;97665.91;;;15.97;100.00
34482;BME280;20720;48.886;9.388;2023-05-10T00:55:36;97673.84;;;16.82;100.00
34482;BME280;20720;48.886;9.388;2023-05-10T00:58:01;97670.38;;;16.19;100.00
34482;BME280;20720;48.886;9.388;2023-05-10T01:00:26;97671.50;;;16.28;100.00
34482;BME280;20720;48.886;9.388;2023-05-10T01:02:53;97683.06;;;16.43;100.00
34482;BME280;20720;48.886;9.388;2023-05-10T01:05:18;97686.13;;;16.03;100.00
34482;BME280;20720;48.886;9.388;2023-05-10T01:07:44;97683.13;;;15.95;100.00
34482;BME280;20720;48.886;9.388;2023-05-10T01:10:09;97688.69;;;15.72;100.00
34482;BME280;20720;48.886;9.388;2023-05-10T01:12:38;97683.47;;;15.39;100.00
34482;BME280;20720;48.886;9.388;2023-05-10T01:15:06;97694.47;;;15.69;100.00
34482;BME280;20720;48.886;9.388;2023-05-10T01:17:35;97697.63;;;15.87;100.00
34482;BME280;20720;48.886;9.388;2023-05-10T01:20:01;97700.38;;;15.54;100.00
34482;BME280;20720;48.886;9.388;2023-05-10T01:25:24;97691.31;;;16.47;100.00
34482;BME280;20720;48.886;9.388;2023-05-10T01:30:50;97699.81;;;15.95;100.00
34482;BME280;20720;48.886;9.388;2023-05-10T01:33:51;97691.47;;;15.60;100.00
34482;BME280;20720;48.886;9.388;2023-05-10T01:36:30;97694.34;;;15.80;100.00
34482;BME280;20720;48.886;9.388;2023-05-10T01:39:01;97698.38;;;16.10;100.00
34482;BME280;20720;48.886;9.388;2023-05-10T01:41:35;97705.03;;;16.12;100.00
34482;BME280;20720;48.886;9.388;2023-05-10T01:44:27;97711.50;;;16.21;100.00
34482;BME280;20720;48.886;9.388;2023-05-10T01:47:03;97707.91;;;16.11;100.00
34482;BME280;20720;48.886;9.388;2023-05-10T01:49:34;97718.91;;;15.54;100.00
34482;BME280;20720;48.886;9.388;2023-05-10T01:52:06;97712.72;;;15.87;100.00
34482;BME280;20720;48.886;9.388;2023-05-10T01:54:38;97712.03;;;15.37;100.00
34482;BME280;20720;48.886;9.388;2023-05-10T01:57:08;97720.03;;;15.58;100.00
34482;BME280;20720;48.886;9.388;2023-05-10T01:59:38;97726.22;;;15.85;100.00
34482;BME280;20720;48.886;9.388;2023-05-10T02:02:07;97720.69;;;15.49;100.00
34482;BME280;20720;48.886;9.388;2023-05-10T02:04:37;97720.56;;;16.52;100.00
34482;BME280;20720;48.886;9.388;2023-05-10T02:07:04;97720.22;;;15.95;100.00
34482;BME280;20720;48.886;9.388;2023-05-10T02:09:32;97730.41;;;15.81;100.00
34482;BME280;20720;48.886;9.388;2023-05-10T02:11:59;97725.84;;;16.25;100.00
34482;BME280;20720;48.886;9.388;2023-05-10T02:14:26;97734.84;;;16.77;100.00
34482;BME280;20720;48.886;9.388;2023-05-10T02:16:53;97729.88;;;16.06;100.00
34482;BME280;20720;48.886;9.388;2023-05-10T02:19:21;97736.34;;;15.93;100.00
34482;BME280;20720;48.886;9.388;2023-05-10T02:21:48;97729.41;;;15.87;100.00
34482;BME280;20720;48.886;9.388;2023-05-10T02:24:16;97731.72;;;15.24;100.00
34482;BME280;20720;48.886;9.388;2023-05-10T02:26:44;97738.00;;;15.99;100.00
34482;BME280;20720;48.886;9.388;2023-05-10T02:29:10;97738.28;;;15.76;100.00
34482;BME280;20720;48.886;9.388;2023-05-10T02:31:38;97734.72;;;15.87;100.00
34482;BME280;20720;48.886;9.388;2023-05-10T02:34:04;97740.50;;;16.86;100.00
34482;BME280;20720;48.886;9.388;2023-05-10T02:36:31;97752.94;;;16.80;100.00
34482;BME280;20720;48.886;9.388;2023-05-10T02:38:58;97744.84;;;16.97;100.00
34482;BME280;20720;48.886;9.388;2023-05-10T02:41:25;97751.78;;;16.71;100.00
34482;BME280;20720;48.886;9.388;2023-05-10T02:43:55;97748.84;;;16.20;100.00
34482;BME280;20720;48.886;9.388;2023-05-10T02:46:22;97749.91;;;16.19;100.00
34482;BME280;20720;48.886;9.388;2023-05-10T02:48:48;97754.81;;;16.85;100.00
34482;BME280;20720;48.886;9.388;2023-05-10T02:51:16;97762.22;;;16.83;100.00
34482;BME280;20720;48.886;9.388;2023-05-10T02:53:44;97765.41;;;16.53;100.00
34482;BME280;20720;48.886;9.388;2023-05-10T02:56:20;97756.25;;;16.18;100.00
34482;BME280;20720;48.886;9.388;2023-05-10T02:58:50;97765.34;;;16.75;100.00
34482;BME280;20720;48.886;9.388;2023-05-10T03:01:15;97767.06;;;16.91;100.00
34482;BME280;20720;48.886;9.388;2023-05-10T03:03:40;97762.06;;;16.41;100.00
34482;BME280;20720;48.886;9.388;2023-05-10T03:06:05;97761.91;;;16.48;100.00
34482;BME280;20720;48.886;9.388;2023-05-10T03:08:31;97760.25;;;16.47;100.00
34482;BME280;20720;48.886;9.388;2023-05-10T03:11:10;97764.28;;;16.76;100.00
34482;BME280;20720;48.886;9.388;2023-05-10T03:16:29;97771.94;;;16.46;100.00
34482;BME280;20720;48.886;9.388;2023-05-10T03:19:12;97774.47;;;16.84;100.00
34482;BME280;20720;48.886;9.388;2023-05-10T03:21:41;97770.00;;;16.89;100.00
34482;BME280;20720;48.886;9.388;2023-05-10T03:24:10;97771.81;;;16.84;100.00
34482;BME280;20720;48.886;9.388;2023-05-10T03:26:38;97771.69;;;16.74;100.00
34482;BME280;20720;48.886;9.388;2023-05-10T03:29:04;97776.06;;;16.90;100.00
34482;BME280;20720;48.886;9.388;2023-05-10T03:31:31;97768.75;;;17.02;100.00
34482;BME280;20720;48.886;9.388;2023-05-10T03:33:56;97775.09;;;16.69;100.00
34482;BME280;20720;48.886;9.388;2023-05-10T03:36:22;97771.13;;;16.67;100.00
34482;BME280;20720;48.886;9.388;2023-05-10T03:38:47;97782.63;;;16.51;100.00
34482;BME280;20720;48.886;9.388;2023-05-10T03:41:12;97781.28;;;17.07;100.00
34482;BME280;20720;48.886;9.388;2023-05-10T03:43:37;97787.31;;;16.70;100.00
34482;BME280;20720;48.886;9.388;2023-05-10T03:46:04;97781.03;;;16.76;100.00
34482;BME280;20720;48.886;9.388;2023-05-10T03:48:30;97775.25;;;17.16;100.00
34482;BME280;20720;48.886;9.388;2023-05-10T03:50:55;97782.19;;;16.90;100.00
34482;BME280;20720;48.886;9.388;2023-05-10T03:53:20;97784.69;;;17.02;100.00
34482;BME280;20720;48.886;9.388;2023-05-10T03:55:46;97776.41;;;16.67;100.00
34482;BME280;20720;48.886;9.388;2023-05-10T03:58:11;97785.53;;;16.76;100.00
34482;BME280;20720;48.886;9.388;2023-05-10T04:00:37;97783.59;;;16.98;100.00
34482;BME280;20720;48.886;9.388;2023-05-10T04:03:02;97776.97;;;16.69;100.00
34482;BME280;20720;48.886;9.388;2023-05-10T04:05:29;97781.75;;;17.04;100.00
34482;BME280;20720;48.886;9.388;2023-05-10T04:07:54;97774.25;;;16.16;100.00
34482;BME280;20720;48.886;9.388;2023-05-10T04:10:19;97774.34;;;16.26;100.00
34482;BME280;20720;48.886;9.388;2023-05-10T04:12:45;97774.75;;;16.61;100.00
34482;BME280;20720;48.886;9.388;2023-05-10T04:15:10;97783.06;;;16.21;100.00
34482;BME280;20720;48.886;9.388;2023-05-10T04:17:36;97775.81;;;16.60;100.00
34482;BME280;20720;48.886;9.388;2023-05-10T04:20:02;97771.38;;;16.44;100.00
34482;BME280;20720;48.886;9.388;2023-05-10T04:22:28;97785.00;;;16.79;100.00
34482;BME280;20720;48.886;9.388;2023-05-10T04:24:54;97782.47;;;16.94;100.00
34482;BME280;20720;48.886;9.388;2023-05-10T04:27:19;97785.25;;;17.09;100.00
34482;BME280;20720;48.886;9.388;2023-05-10T04:29:44;97782.31;;;17.37;100.00
34482;BME280;20720;48.886;9.388;2023-05-10T04:32:10;97788.19;;;17.44;100.00
34482;BME280;20720;48.886;9.388;2023-05-10T04:34:36;97795.78;;;17.31;100.00
34482;BME280;20720;48.886;9.388;2023-05-10T04:37:01;97794.19;;;16.98;100.00
34482;BME280;20720;48.886;9.388;2023-05-10T04:39:26;97793.34;;;17.24;100.00
34482;BME280;20720;48.886;9.388;2023-05-10T04:41:52;97794.22;;;17.35;100.00
34482;BME280;20720;48.886;9.388;2023-05-10T04:44:17;97796.22;;;17.49;100.00
34482;BME280;20720;48.886;9.388;2023-05-10T04:46:42;97801.06;;;17.62;100.00
34482;BME280;20720;48.886;9.388;2023-05-10T04:49:07;97800.06;;;17.68;100.00
34482;BME280;20720;48.886;9.388;2023-05-10T04:51:33;97804.00;;;17.66;100.00
34482;BME280;20720;48.886;9.388;2023-05-10T04:53:58;97806.72;;;17.39;100.00
34482;BME280;20720;48.886;9.388;2023-05-10T04:56:23;97805.63;;;17.67;100.00
34482;BME280;20720;48.886;9.388;2023-05-10T04:58:48;97806.09;;;17.59;100.00
34482;BME280;20720;48.886;9.388;2023-05-10T05:01:14;97813.63;;;17.35;100.00
34482;BME280;20720;48.886;9.388;2023-05-10T05:03:39;97819.72;;;17.36;100.00
34482;BME280;20720;48.886;9.388;2023-05-10T05:06:05;97812.72;;;17.20;100.00
34482;BME280;20720;48.886;9.388;2023-05-10T05:08:30;97812.03;;;17.03;100.00
34482;BME280;20720;48.886;9.388;2023-05-10T05:10:56;97805.97;;;16.32;100.00
34482;BME280;20720;48.886;9.388;2023-05-10T05:13:21;97802.94;;;16.67;100.00
34482;BME280;20720;48.886;9.388;2023-05-10T05:15:47;97816.44;;;17.55;100.00
34482;BME280;20720;48.886;9.388;2023-05-10T05:18:12;97815.75;;;17.33;100.00
34482;BME280;20720;48.886;9.388;2023-05-10T05:20:37;97824.75;;;16.74;100.00
34482;BME280;20720;48.886;9.388;2023-05-10T05:23:02;97821.38;;;17.42;100.00
34482;BME280;20720;48.886;9.388;2023-05-10T05:25:28;97826.25;;;17.18;100.00
34482;BME280;20720;48.886;9.388;2023-05-10T05:27:53;97831.47;;;16.55;100.00
34482;BME280;20720;48.886;9.388;2023-05-10T05:30:19;97822.59;;;16.98;100.00
34482;BME280;20720;48.886;9.388;2023-05-10T05:32:44;97833.47;;;16.69;100.00
34482;BME280;20720;48.886;9.388;2023-05-10T05:35:09;97831.50;;;17.13;100.00
34482;BME280;20720;48.886;9.388;2023-05-10T05:37:34;97833.22;;;17.29;100.00
34482;BME280;20720;48.886;9.388;2023-05-10T05:40:00;97830.13;;;17.37;100.00
34482;BME280;20720;48.886;9.388;2023-05-10T05:42:26;97838.50;;;17.56;100.00
34482;BME280;20720;48.886;9.388;2023-05-10T05:44:52;97837.56;;;18.29;100.00
34482;BME280;20720;48.886;9.388;2023-05-10T05:47:17;97833.41;;;18.43;100.00
34482;BME280;20720;48.886;9.388;2023-05-10T05:49:42;97842.47;;;18.52;100.00
34482;BME280;20720;48.886;9.388;2023-05-10T05:52:10;97844.84;;;17.97;100.00
34482;BME280;20720;48.886;9.388;2023-05-10T05:54:35;97849.91;;;17.98;100.00
34482;BME280;20720;48.886;9.388;2023-05-10T05:57:01;97850.50;;;18.72;100.00
34482;BME280;20720;48.886;9.388;2023-05-10T05:59:26;97854.47;;;18.08;100.00
34482;BME280;20720;48.886;9.388;2023-05-10T06:01:52;97848.38;;;18.69;100.00
34482;BME280;20720;48.886;9.388;2023-05-10T06:04:18;97851.00;;;18.49;100.00
34482;BME280;20720;48.886;9.388;2023-05-10T06:06:44;97856.78;;;17.94;100.00
34482;BME280;20720;48.886;9.388;2023-05-10T06:09:10;97855.44;;;17.86;100.00
34482;BME280;20720;48.886;9.388;2023-05-10T06:11:35;97859.59;;;17.72;100.00
34482;BME280;20720;48.886;9.388;2023-05-10T06:14:02;97855.63;;;16.58;100.00
34482;BME280;20720;48.886;9.388;2023-05-10T06:16:29;97855.41;;;17.45;100.00
34482;BME280;20720;48.886;9.388;2023-05-10T06:18:54;97866.41;;;18.52;100.00
34482;BME280;20720;48.886;9.388;2023-05-10T06:21:20;97870.91;;;17.95;100.00
34482;BME280;20720;48.886;9.388;2023-05-10T06:23:45;97876.34;;;17.73;100.00
34482;BME280;20720;48.886;9.388;2023-05-10T06:26:11;97876.84;;;18.12;100.00
34482;BME280;20720;48.886;9.388;2023-05-10T06:28:36;97873.34;;;17.64;100.00
34482;BME280;20720;48.886;9.388;2023-05-10T06:31:03;97880.81;;;17.09;100.00
34482;BME280;20720;48.886;9.388;2023-05-10T06:33:29;97878.44;;;16.81;100.00
34482;BME280;20720;48.886;9.388;2023-05-10T06:35:54;97882.44;;;18.10;100.00
34482;BME280;20720;48.886;9.388;2023-05-10T06:38:19;97885.66;;;17.75;100.00
34482;BME280;20720;48.886;9.388;2023-05-10T06:40:44;97885.38;;;18.19;100.00
34482;BME280;20720;48.886;9.388;2023-05-10T06:43:10;97875.28;;;18.16;100.00
34482;BME280;20720;48.886;9.388;2023-05-10T06:45:35;97880.50;;;17.59;100.00
34482;BME280;20720;48.886;9.388;2023-05-10T06:48:01;97879.19;;;18.55;100.00
34482;BME280;20720;48.886;9.388;2023-05-10T06:50:26;97876.81;;;18.58;100.00
34482;BME280;20720;48.886;9.388;2023-05-10T06:52:51;97887.63;;;17.90;100.00
34482;BME280;20720;48.886;9.388;2023-05-10T06:55:17;97885.72;;;18.99;100.00
34482;BME280;20720;48.886;9.388;2023-05-10T06:57:42;97897.47;;;17.95;100.00
34482;BME280;20720;48.886;9.388;2023-05-10T07:00:07;97898.50;;;17.52;100.00
34482;BME280;20720;48.886;9.388;2023-05-10T07:02:34;97900.22;;;17.68;100.00
34482;BME280;20720;48.886;9.388;2023-05-10T07:05:00;97887.81;;;18.77;100.00
34482;BME280;20720;48.886;9.388;2023-05-10T07:07:25;97893.75;;;19.29;100.00
34482;BME280;20720;48.886;9.388;2023-05-10T07:09:50;97894.13;;;18.61;100.00
34482;BME280;20720;48.886;9.388;2023-05-10T07:12:16;97897.00;;;18.49;100.00
34482;BME280;20720;48.886;9.388;2023-05-10T07:14:42;97906.78;;;18.39;100.00
34482;BME280;20720;48.886;9.388;2023-05-10T07:17:07;97904.34;;;19.04;100.00
34482;BME280;20720;48.886;9.388;2023-05-10T07:19:32;97895.38;;;19.40;100.00
34482;BME280;20720;48.886;9.388;2023-05-10T07:21:58;97907.00;;;18.32;100.00
34482;BME280;20720;48.886;9.388;2023-05-10T07:24:23;97902.47;;;18.95;100.00
34482;BME280;20720;48.886;9.388;2023-05-10T07:26:49;97905.44;;;18.98;100.00
34482;BME280;20720;48.886;9.388;2023-05-10T07:29:14;97905.78;;;19.42;100.00
34482;BME280;20720;48.886;9.388;2023-05-10T07:31:39;97912.97;;;19.46;100.00
34482;BME280;20720;48.886;9.388;2023-05-10T07:34:07;97917.19;;;18.45;100.00
34482;BME280;20720;48.886;9.388;2023-05-10T07:36:32;97924.16;;;18.10;100.00
34482;BME280;20720;48.886;9.388;2023-05-10T07:38:57;97914.06;;;18.07;100.00
34482;BME280;20720;48.886;9.388;2023-05-10T07:41:23;97913.03;;;18.64;100.00
34482;BME280;20720;48.886;9.388;2023-05-10T07:43:48;97914.47;;;18.97;100.00
34482;BME280;20720;48.886;9.388;2023-05-10T07:46:13;97916.34;;;18.40;100.00
34482;BME280;20720;48.886;9.388;2023-05-10T07:48:39;97912.44;;;19.49;100.00
34482;BME280;20720;48.886;9.388;2023-05-10T07:51:04;97919.28;;;19.15;100.00
34482;BME280;20720;48.886;9.388;2023-05-10T07:53:31;97927.75;;;17.88;100.00
34482;BME280;20720;48.886;9.388;2023-05-10T07:55:57;97921.84;;;18.18;100.00
34482;BME280;20720;48.886;9.388;2023-05-10T07:58:23;97926.16;;;17.88;100.00
34482;BME280;20720;48.886;9.388;2023-05-10T08:00:49;97930.50;;;17.67;100.00
34482;BME280;20720;48.886;9.388;2023-05-10T08:03:14;97923.88;;;18.53;100.00
34482;BME280;20720;48.886;9.388;2023-05-10T08:05:40;97934.97;;;18.40;100.00
34482;BME280;20720;48.886;9.388;2023-05-10T08:08:05;97932.25;;;18.82;100.00
34482;BME280;20720;48.886;9.388;2023-05-10T08:10:31;97935.75;;;17.94;100.00
34482;BME280;20720;48.886;9.388;2023-05-10T08:12:56;97936.09;;;18.44;100.00
34482;BME280;20720;48.886;9.388;2023-05-10T08:15:23;97939.69;;;18.69;100.00
34482;BME280;20720;48.886;9.388;2023-05-10T08:17:48;97942.41;;;18.38;100.00
34482;BME280;20720;48.886;9.388;2023-05-10T08:20:14;97941.19;;;18.09;100.00
34482;BME280;20720;48.886;9.388;2023-05-10T08:22:41;97944.34;;;18.06;100.00
34482;BME280;20720;48.886;9.388;2023-05-10T08:25:07;97944.41;;;18.16;100.00
34482;BME280;20720;48.886;9.388;2023-05-10T08:27:32;97953.19;;;17.48;100.00
34482;BME280;20720;48.886;9.388;2023-05-10T08:29:58;97952.50;;;17.94;100.00
34482;BME280;20720;48.886;9.388;2023-05-10T08:32:23;97948.50;;;18.80;100.00
34482;BME280;20720;48.886;9.388;2023-05-10T08:34:48;97951.59;;;18.57;100.00
34482;BME280;20720;48.886;9.388;2023-05-10T08:37:13;97953.91;;;18.02;100.00
34482;BME280;20720;48.886;9.388;2023-05-10T08:39:39;97959.28;;;19.25;100.00
34482;BME280;20720;48.886;9.388;2023-05-10T08:42:04;97963.88;;;19.50;100.00
34482;BME280;20720;48.886;9.388;2023-05-10T08:44:34;97960.72;;;19.73;100.00
34482;BME280;20720;48.886;9.388;2023-05-10T08:47:04;97968.16;;;18.74;100.00
34482;BME280;20720;48.886;9.388;2023-05-10T08:49:31;97981.00;;;17.99;100.00
34482;BME280;20720;48.886;9.388;2023-05-10T08:51:59;97967.13;;;19.77;100.00
34482;BME280;20720;48.886;9.388;2023-05-10T08:54:26;97981.25;;;20.28;100.00
34482;BME280;20720;48.886;9.388;2023-05-10T08:56:52;97986.28;;;20.49;100.00
34482;BME280;20720;48.886;9.388;2023-05-10T08:59:18;97990.16;;;19.21;100.00
34482;BME280;20720;48.886;9.388;2023-05-10T09:01:44;97989.78;;;19.69;100.00
34482;BME280;20720;48.886;9.388;2023-05-10T09:04:10;97993.50;;;19.84;100.00
34482;BME280;20720;48.886;9.388;2023-05-10T09:06:37;97986.81;;;19.76;100.00
34482;BME280;20720;48.886;9.388;2023-05-10T09:09:02;97995.22;;;20.89;98.41
34482;BME280;20720;48.886;9.388;2023-05-10T09:11:28;98000.44;;;20.40;99.54
34482;BME280;20720;48.886;9.388;2023-05-10T09:13:55;98009.88;;;21.01;96.36
34482;BME280;20720;48.886;9.388;2023-05-10T09:16:21;98015.38;;;18.94;100.00
34482;BME280;20720;48.886;9.388;2023-05-10T09:18:47;98007.63;;;20.49;100.00
34482;BME280;20720;48.886;9.388;2023-05-10T09:21:13;98013.50;;;20.36;95.27
34482;BME280;20720;48.886;9.388;2023-05-10T09:23:42;98020.97;;;19.94;99.64
34482;BME280;20720;48.886;9.388;2023-05-10T09:26:08;98020.03;;;19.28;100.00
34482;BME280;20720;48.886;9.388;2023-05-10T09:28:34;98015.91;;;20.38;100.00
34482;BME280;20720;48.886;9.388;2023-05-10T09:30:59;98020.28;;;20.98;91.39
34482;BME280;20720;48.886;9.388;2023-05-10T09:33:25;98036.16;;;19.74;98.95
34482;BME280;20720;48.886;9.388;2023-05-10T09:35:51;98029.81;;;20.40;97.25
34482;BME280;20720;48.886;9.388;2023-05-10T09:38:17;98034.75;;;20.97;91.15
34482;BME280;20720;48.886;9.388;2023-05-10T09:40:51;98023.41;;;21.74;91.22
34482;BME280;20720;48.886;9.388;2023-05-10T09:43:19;98031.41;;;22.46;83.29
34482;BME280;20720;48.886;9.388;2023-05-10T09:45:48;98036.84;;;22.93;82.09
34482;BME280;20720;48.886;9.388;2023-05-10T09:48:14;98035.34;;;22.25;81.23
34482;BME280;20720;48.886;9.388;2023-05-10T09:50:39;98038.19;;;22.67;84.08
34482;BME280;20720;48.886;9.388;2023-05-10T09:53:05;98047.25;;;23.61;80.13
34482;BME280;20720;48.886;9.388;2023-05-10T09:55:42;98045.69;;;23.60;80.20
34482;BME280;20720;48.886;9.388;2023-05-10T09:58:10;98051.97;;;23.31;81.67
34482;BME280;20720;48.886;9.388;2023-05-10T10:00:45;98050.34;;;23.30;81.20
34482;BME280;20720;48.886;9.388;2023-05-10T10:03:18;98055.13;;;23.33;81.93
34482;BME280;20720;48.886;9.388;2023-05-10T10:05:45;98047.34;;;21.99;81.27
34482;BME280;20720;48.886;9.388;2023-05-10T10:08:12;98053.22;;;23.58;80.12
34482;BME280;20720;48.886;9.388;2023-05-10T10:10:38;98053.59;;;23.04;80.66
34482;BME280;20720;48.886;9.388;2023-05-10T10:13:06;98047.66;;;23.30;77.24
34482;BME280;20720;48.886;9.388;2023-05-10T10:15:33;98053.00;;;23.91;75.28
34482;BME280;20720;48.886;9.388;2023-05-10T10:17:59;98050.88;;;23.32;78.45
34482;BME280;20720;48.886;9.388;2023-05-10T10:20:25;98047.16;;;22.19;79.37
34482;BME280;20720;48.886;9.388;2023-05-10T10:22:51;98048.75;;;21.37;82.62
34482;BME280;20720;48.886;9.388;2023-05-10T10:25:17;98040.56;;;21.19;89.92
34482;BME280;20720;48.886;9.388;2023-05-10T10:30:41;98038.84;;;20.49;94.63
34482;BME280;20720;48.886;9.388;2023-05-10T10:35:39;98039.28;;;20.96;91.61
34482;BME280;20720;48.886;9.388;2023-05-10T10:38:07;98034.41;;;21.18;90.74
34482;BME280;20720;48.886;9.388;2023-05-10T10:40:33;98037.78;;;20.15;94.99
34482;BME280;20720;48.886;9.388;2023-05-10T10:43:25;98052.19;;;20.04;93.13
34482;BME280;20720;48.886;9.388;2023-05-10T10:46:10;98052.72;;;20.06;95.92
34482;BME280;20720;48.886;9.388;2023-05-10T10:48:37;98055.91;;;20.63;92.60
34482;BME280;20720;48.886;9.388;2023-05-10T10:51:02;98055.59;;;19.74;97.65
34482;BME280;20720;48.886;9.388;2023-05-10T10:53:28;98051.97;;;19.18;100.00
34482;BME280;20720;48.886;9.388;2023-05-10T10:56:12;98059.41;;;19.16;96.54
34482;BME280;20720;48.886;9.388;2023-05-10T10:58:40;98058.34;;;20.09;98.99
34482;BME280;20720;48.886;9.388;2023-05-10T11:01:10;98051.69;;;20.27;92.43
34482;BME280;20720;48.886;9.388;2023-05-10T11:03:36;98044.94;;;21.53;86.59
34482;BME280;20720;48.886;9.388;2023-05-10T11:06:01;98048.50;;;20.25;91.84
34482;BME280;20720;48.886;9.388;2023-05-10T11:08:32;98051.69;;;20.27;89.62
34482;BME280;20720;48.886;9.388;2023-05-10T11:13:29;98055.13;;;20.07;91.23
34482;BME280;20720;48.886;9.388;2023-05-10T11:15:55;98054.28;;;19.72;93.78
34482;BME280;20720;48.886;9.388;2023-05-10T11:18:27;98054.31;;;20.07;95.54
34482;BME280;20720;48.886;9.388;2023-05-10T11:20:58;98048.94;;;19.66;93.82
34482;BME280;20720;48.886;9.388;2023-05-10T11:23:30;98055.63;;;19.89;95.27
34482;BME280;20720;48.886;9.388;2023-05-10T11:25:56;98058.03;;;19.81;97.73
34482;BME280;20720;48.886;9.388;2023-05-10T11:28:21;98050.28;;;20.70;88.95
34482;BME280;20720;48.886;9.388;2023-05-10T11:30:46;98055.38;;;20.66;84.19
34482;BME280;20720;48.886;9.388;2023-05-10T11:33:19;98062.81;;;20.84;83.34
34482;BME280;20720;48.886;9.388;2023-05-10T11:35:45;98056.56;;;21.24;83.10
34482;BME280;20720;48.886;9.388;2023-05-10T11:38:11;98061.31;;;22.24;79.01
34482;BME280;20720;48.886;9.388;2023-05-10T11:40:38;98058.41;;;22.50;78.23
34482;BME280;20720;48.886;9.388;2023-05-10T11:43:04;98075.16;;;22.03;73.62
34482;BME280;20720;48.886;9.388;2023-05-10T11:45:32;98077.09;;;23.35;70.92
34482;BME280;20720;48.886;9.388;2023-05-10T11:47:58;98073.41;;;24.11;70.46
34482;BME280;20720;48.886;9.388;2023-05-10T11:50:25;98075.84;;;23.89;71.09
34482;BME280;20720;48.886;9.388;2023-05-10T11:52:55;98082.28;;;24.25;69.73
34482;BME280;20720;48.886;9.388;2023-05-10T11:55:22;98085.09;;;23.41;68.91
34482;BME280;20720;48.886;9.388;2023-05-10T11:57:48;98075.25;;;23.07;72.06
34482;BME280;20720;48.886;9.388;2023-05-10T12:00:16;98080.94;;;22.77;74.26
34482;BME280;20720;48.886;9.388;2023-05-10T12:02:41;98079.28;;;22.53;75.07
34482;BME280;20720;48.886;9.388;2023-05-10T12:05:08;98080.66;;;22.79;74.01
34482;BME280;20720;48.886;9.388;2023-05-10T12:07:33;98078.31;;;22.72;75.54
34482;BME280;20720;48.886;9.388;2023-05-10T12:10:25;98080.00;;;23.15;73.76
34482;BME280;20720;48.886;9.388;2023-05-10T12:12:51;98079.72;;;22.93;76.39
34482;BME280;20720;48.886;9.388;2023-05-10T12:15:19;98082.78;;;23.05;74.92
34482;BME280;20720;48.886;9.388;2023-05-10T12:17:45;98085.97;;;23.07;75.34
34482;BME280;20720;48.886;9.388;2023-05-10T12:22:48;98088.94;;;23.53;74.17
34482;BME280;20720;48.886;9.388;2023-05-10T12:25:14;98088.63;;;23.12;74.06
34482;BME280;20720;48.886;9.388;2023-05-10T12:27:41;98098.94;;;22.38;75.66
34482;BME280;20720;48.886;9.388;2023-05-10T12:30:06;98095.00;;;21.92;77.72
34482;BME280;20720;48.886;9.388;2023-05-10T12:32:39;98103.91;;;21.13;77.73
34482;BME280;20720;48.886;9.388;2023-05-10T12:35:05;98101.06;;;22.07;76.77
34482;BME280;20720;48.886;9.388;2023-05-10T12:37:30;98099.66;;;22.20;76.89
34482;BME280;20720;48.886;9.388;2023-05-10T12:39:56;98101.06;;;22.41;73.58
34482;BME280;20720;48.886;9.388;2023-05-10T12:42:21;98112.53;;;20.40;77.16
34482;BME280;20720;48.886;9.388;2023-05-10T12:44:46;98108.69;;;19.76;79.47
34482;BME280;20720;48.886;9.388;2023-05-10T12:47:11;98114.06;;;19.91;80.68
34482;BME280;20720;48.886;9.388;2023-05-10T12:49:37;98122.00;;;19.70;82.08
34482;BME280;20720;48.886;9.388;2023-05-10T12:52:03;98122.91;;;20.11;82.06
34482;BME280;20720;48.886;9.388;2023-05-10T12:54:28;98124.09;;;19.58;83.23
34482;BME280;20720;48.886;9.388;2023-05-10T12:56:54;98124.94;;;19.17;81.44
34482;BME280;20720;48.886;9.388;2023-05-10T12:59:19;98129.47;;;19.17;82.20
34482;BME280;20720;48.886;9.388;2023-05-10T13:01:46;98134.72;;;19.48;77.81
34482;BME280;20720;48.886;9.388;2023-05-10T13:04:11;98134.66;;;20.25;72.88
34482;BME280;20720;48.886;9.388;2023-05-10T13:06:37;98120.22;;;21.12;72.29
34482;BME280;20720;48.886;9.388;2023-05-10T13:09:02;98125.00;;;21.79;71.81
34482;BME280;20720;48.886;9.388;2023-05-10T13:11:27;98129.53;;;21.14;70.36